Time;durP1;ratioP1;P1;durP2;ratioP2;P2;SDS_P1;SDS_P2;PMS_P1;PMS_P2;Temp;Humidity;BMP_temperature;BMP_pressure;BME280_temperature;BME280_humidity;BME280_pressure;Samples;Min_cycle;Max_cycle;Signal;HPM_P1;HPM_P2
2023/05/31 00:00:39;;;;;;;4.63;3.13;;;;;;;18.77;36.06;99446.59;5146218;28;20059;-77
2023/05/31 00:03:09;;;;;;;6.57;2.83;;;;;;;19.01;36.47;99489.25;5145370;28;20203;-76
2023/05/31 00:05:36;;;;;;;4.85;3.08;;;;;;;18.96;36.16;99494.16;5146774;28;20042;-76
2023/05/31 00:08:02;;;;;;;5.32;2.75;;;;;;;18.95;36.61;99495.16;5145273;28;20279;-76
2023/05/31 00:10:30;;;;;;;5.15;3.03;;;;;;;18.91;36.71;99494.56;5146345;27;20072;-75
2023/05/31 00:12:57;;;;;;;7.18;3.03;;;;;;;18.89;36.40;99488.47;5145294;28;20047;-76
2023/05/31 00:15:24;;;;;;;8.93;3.88;;;;;;;18.87;36.83;99490.44;5146407;28;20207;-76
2023/05/31 00:17:52;;;;;;;5.55;3.65;;;;;;;18.86;36.71;99496.81;5146348;28;20047;-76
2023/05/31 00:20:21;;;;;;;5.28;3.47;;;;;;;18.51;36.54;99437.25;5146073;28;20323;-76
2023/05/31 00:22:47;;;;;;;7.13;4.32;;;;;;;18.78;36.46;99496.63;5145187;28;20045;-76
2023/05/31 00:25:14;;;;;;;6.40;3.63;;;;;;;18.77;36.53;99500.28;5145204;28;20245;-76
2023/05/31 00:27:42;;;;;;;5.80;3.42;;;;;;;18.63;36.72;99475.63;5149319;27;20053;-76
2023/05/31 00:30:10;;;;;;;6.55;3.80;;;;;;;18.75;36.57;99498.72;5149937;27;20111;-75
2023/05/31 00:32:37;;;;;;;6.43;3.83;;;;;;;18.70;36.91;99493.75;5150219;27;20043;-76
2023/05/31 00:35:04;;;;;;;7.07;3.67;;;;;;;18.71;36.68;99497.28;5149875;27;20051;-76
2023/05/31 00:37:36;;;;;;;4.72;3.35;;;;;;;18.69;36.55;99491.19;5148963;27;20084;-76
2023/05/31 00:40:03;;;;;;;5.90;3.50;;;;;;;18.68;36.49;99493.03;5148631;27;20043;-76
2023/05/31 00:42:31;;;;;;;5.18;3.22;;;;;;;18.69;36.60;99492.03;5149496;27;20124;-76
2023/05/31 00:44:58;;;;;;;4.97;3.38;;;;;;;18.42;36.53;99456.81;5149375;27;20050;-76
2023/05/31 00:47:25;;;;;;;6.88;3.40;;;;;;;18.63;36.61;99491.72;5148513;27;20046;-75
2023/05/31 00:49:52;;;;;;;6.20;3.25;;;;;;;18.57;37.06;99504.69;5149594;27;20059;-76
2023/05/31 00:52:20;;;;;;;7.00;3.53;;;;;;;18.34;36.85;99462.84;5148415;27;20279;-76
2023/05/31 00:54:49;;;;;;;8.73;3.22;;;;;;;18.47;37.15;99490.31;5148373;27;20196;-76
2023/05/31 00:57:16;;;;;;;5.97;3.22;;;;;;;18.43;36.91;99490.72;5148375;27;20119;-76
2023/05/31 00:59:43;;;;;;;4.65;2.92;;;;;;;18.38;37.20;99491.13;5149104;27;20198;-76
2023/05/31 01:02:12;;;;;;;5.90;3.25;;;;;;;18.05;37.08;99443.00;5148214;27;20126;-76
2023/05/31 01:04:39;;;;;;;6.40;3.20;;;;;;;18.36;37.10;99494.91;5148777;27;20248;-76
2023/05/31 01:07:08;;;;;;;7.05;3.40;;;;;;;18.04;37.11;99458.25;5149611;27;20041;-76
2023/05/31 01:09:36;;;;;;;6.90;3.20;;;;;;;18.30;37.37;99490.06;5149207;27;20295;-76
2023/05/31 01:12:16;;;;;;;6.65;2.85;;;;;;;16.10;37.91;99143.22;5149231;27;20276;-76
2023/05/31 01:14:56;;;;;;;6.75;3.58;;;;;;;18.18;37.40;99495.47;5149339;27;20047;-76
2023/05/31 01:17:30;;;;;;;5.20;3.17;;;;;;;18.14;37.56;99493.19;5149047;27;20043;-75
2023/05/31 01:20:01;;;;;;;6.40;3.22;;;;;;;15.99;37.83;99136.09;5148716;27;20065;-75
2023/05/31 01:22:41;;;;;;;6.18;3.15;;;;;;;18.06;37.94;99488.47;5148584;27;20031;-75
2023/05/31 01:25:36;;;;;;;6.50;3.15;;;;;;;17.93;38.10;99477.94;5149118;27;20114;-75
2023/05/31 01:28:07;;;;;;;10.15;3.92;;;;;;;17.97;37.74;99491.94;5148801;27;20035;-76
2023/05/31 01:30:36;;;;;;;8.18;3.33;;;;;;;17.88;38.05;99490.00;5148764;27;20318;-75
2023/05/31 01:33:07;;;;;;;4.88;2.88;;;;;;;17.93;37.91;99499.38;5147561;27;20084;-75
2023/05/31 01:35:34;;;;;;;6.07;3.33;;;;;;;17.91;38.09;99495.97;5147885;27;20046;-75
2023/05/31 01:38:01;;;;;;;5.68;3.05;;;;;;;17.93;38.01;99493.16;5147713;27;20043;-76
2023/05/31 01:40:29;;;;;;;5.60;2.95;;;;;;;17.90;38.13;99488.06;5148351;27;20108;-76
2023/05/31 01:42:57;;;;;;;4.40;2.85;;;;;;;17.65;38.07;99453.53;5148490;27;20050;-76
2023/05/31 01:45:28;;;;;;;6.13;3.22;;;;;;;17.83;38.53;99493.06;5148673;27;20168;-76
2023/05/31 01:48:01;;;;;;;6.57;3.25;;;;;;;17.80;38.17;99492.47;5148622;27;20219;-76
2023/05/31 01:50:28;;;;;;;6.05;3.10;;;;;;;17.53;38.56;99458.91;5148116;27;20039;-76
2023/05/31 01:52:56;;;;;;;5.65;3.22;;;;;;;17.73;38.38;99496.63;5147930;27;20054;-76
2023/05/31 01:55:23;;;;;;;6.32;2.97;;;;;;;17.74;38.47;99501.03;5148219;27;20091;-76
2023/05/31 01:57:53;;;;;;;7.47;2.95;;;;;;;17.72;38.27;99505.66;5147774;27;20046;-76
2023/05/31 02:00:22;;;;;;;5.07;2.65;;;;;;;17.66;38.50;99498.97;5148218;27;20035;-75
2023/05/31 02:02:51;;;;;;;6.13;2.70;;;;;;;17.47;38.61;99470.13;5147899;27;20126;-75
2023/05/31 02:05:18;;;;;;;5.57;3.72;;;;;;;17.56;38.75;99493.47;5148082;27;20047;-76
2023/05/31 02:07:47;;;;;;;6.82;3.88;;;;;;;17.58;38.68;99496.88;5146958;27;20035;-76
2023/05/31 02:10:14;;;;;;;5.43;3.00;;;;;;;17.56;38.65;99496.16;5147576;27;20221;-76
2023/05/31 02:12:41;;;;;;;4.35;2.70;;;;;;;17.22;38.68;99454.34;5146808;27;20043;-75
2023/05/31 02:15:10;;;;;;;5.63;3.17;;;;;;;17.53;38.92;99507.13;5147963;27;20046;-76
2023/05/31 02:17:40;;;;;;;4.90;2.80;;;;;;;17.48;38.82;99514.69;5148121;27;20313;-75
2023/05/31 02:20:12;;;;;;;7.13;2.85;;;;;;;17.11;38.99;99451.66;5147538;27;20039;-76
2023/05/31 02:22:39;;;;;;;5.80;3.05;;;;;;;17.41;38.83;99513.50;5147775;27;20053;-76
2023/05/31 02:25:08;;;;;;;6.22;3.47;;;;;;;17.15;38.88;99469.16;5148083;27;20039;-76
2023/05/31 02:27:35;;;;;;;5.55;3.03;;;;;;;17.31;39.09;99507.16;5146571;27;20088;-75
2023/05/31 02:30:04;;;;;;;6.22;3.50;;;;;;;17.33;38.69;99512.41;5146456;27;20206;-76
2023/05/31 02:32:35;;;;;;;8.82;3.53;;;;;;;17.28;39.04;99512.78;5147242;27;20283;-76
2023/05/31 02:35:02;;;;;;;8.32;3.75;;;;;;;17.20;38.85;99510.72;5147224;27;20298;-76
2023/05/31 02:37:30;;;;;;;5.78;3.17;;;;;;;17.14;39.03;99507.63;5146384;27;20035;-76
2023/05/31 02:39:57;;;;;;;5.20;3.03;;;;;;;17.09;39.20;99505.31;5147209;27;20318;-76
2023/05/31 02:42:25;;;;;;;5.03;3.10;;;;;;;17.04;39.06;99512.88;5146111;27;20051;-77
2023/05/31 02:44:52;;;;;;;8.75;3.35;;;;;;;16.95;39.50;99516.28;5147257;27;20348;-75
2023/05/31 02:47:19;;;;;;;5.55;3.22;;;;;;;16.85;39.55;99521.50;5146186;27;20039;-75
2023/05/31 02:49:46;;;;;;;6.75;3.20;;;;;;;16.85;39.37;99516.16;5146388;27;20035;-75
2023/05/31 02:52:13;;;;;;;4.85;2.97;;;;;;;16.32;39.51;99435.53;5147202;27;20062;-77
2023/05/31 02:54:41;;;;;;;7.35;3.35;;;;;;;16.80;39.55;99523.69;5147474;27;20045;-77
2023/05/31 02:57:08;;;;;;;4.28;2.83;;;;;;;16.75;40.00;99531.22;5146843;27;20091;-77
2023/05/31 02:59:35;;;;;;;7.50;3.55;;;;;;;16.66;39.93;99532.78;5146870;27;20035;-77
2023/05/31 03:02:02;;;;;;;4.82;3.10;;;;;;;16.62;39.87;99528.63;5145963;27;20042;-77
2023/05/31 03:04:29;;;;;;;4.45;2.78;;;;;;;16.61;40.05;99528.72;5146936;27;20057;-77
2023/05/31 03:06:56;;;;;;;6.30;4.03;;;;;;;16.59;40.02;99533.34;5147049;27;20189;-77
2023/05/31 03:09:22;;;;;;;7.53;3.95;;;;;;;16.55;40.29;99537.22;5145811;27;20091;-77
2023/05/31 03:11:50;;;;;;;4.97;2.83;;;;;;;16.52;39.97;99538.31;5147263;27;20187;-77
2023/05/31 03:14:17;;;;;;;5.93;2.83;;;;;;;16.47;39.84;99536.97;5146988;28;20043;-77
2023/05/31 03:16:45;;;;;;;6.85;3.42;;;;;;;16.45;40.01;99544.25;5146348;28;20031;-77
2023/05/31 03:19:13;;;;;;;5.90;3.58;;;;;;;16.41;40.20;99540.97;5145757;28;20088;-77
2023/05/31 03:21:40;;;;;;;5.78;3.33;;;;;;;16.40;40.06;99533.06;5145995;28;20330;-77
2023/05/31 03:24:07;;;;;;;6.03;2.83;;;;;;;16.38;40.29;99543.03;5146618;28;20035;-77
2023/05/31 03:26:33;;;;;;;7.03;4.05;;;;;;;16.34;40.37;99545.06;5147094;28;20283;-76
2023/05/31 03:29:02;;;;;;;6.18;3.10;;;;;;;16.34;40.16;99553.94;5146971;28;20143;-77
2023/05/31 03:31:29;;;;;;;6.28;3.17;;;;;;;16.34;40.25;99553.09;5128660;28;20043;-77
2023/05/31 03:33:56;;;;;;;5.53;3.17;;;;;;;16.30;40.29;99552.47;5145578;28;20035;-77
2023/05/31 03:36:22;;;;;;;7.45;3.70;;;;;;;16.32;40.30;99550.53;5146405;28;20056;-77
2023/05/31 03:38:49;;;;;;;5.68;2.97;;;;;;;16.29;40.38;99553.44;5146904;28;20039;-77
2023/05/31 03:41:16;;;;;;;5.88;3.15;;;;;;;16.28;40.31;99558.91;5146350;28;20043;-77
2023/05/31 03:43:43;;;;;;;7.63;3.58;;;;;;;16.27;40.50;99562.56;5146204;28;20134;-77
2023/05/31 03:46:11;;;;;;;6.63;3.88;;;;;;;16.23;40.75;99561.94;5146647;28;20202;-77
2023/05/31 03:48:38;;;;;;;6.05;3.28;;;;;;;16.00;40.75;99512.00;5145410;28;20042;-77
2023/05/31 03:51:05;;;;;;;7.65;2.72;;;;;;;16.22;41.03;99549.53;5146575;28;20065;-77
2023/05/31 03:53:32;;;;;;;5.95;3.40;;;;;;;16.19;41.20;99554.25;5145381;28;20126;-77
2023/05/31 03:55:58;;;;;;;6.30;2.92;;;;;;;16.18;41.10;99555.22;5146346;28;20039;-78
2023/05/31 03:58:25;;;;;;;7.07;3.28;;;;;;;16.19;41.20;99560.44;5145286;28;20035;-77
2023/05/31 04:00:52;;;;;;;5.88;3.13;;;;;;;16.18;41.24;99564.09;5145386;27;20055;-77
2023/05/31 04:03:20;;;;;;;7.22;3.30;;;;;;;16.19;41.28;99567.63;5150170;27;20241;-77
2023/05/31 04:05:47;;;;;;;5.15;2.90;;;;;;;16.17;41.20;99562.38;5149221;27;20039;-77
2023/05/31 04:08:15;;;;;;;8.07;3.22;;;;;;;16.10;40.83;99555.78;5150024;27;20057;-77
2023/05/31 04:10:42;;;;;;;6.45;3.00;;;;;;;16.14;40.94;99564.44;5149122;27;20295;-77
2023/05/31 04:13:09;;;;;;;8.60;4.22;;;;;;;16.13;41.19;99568.09;5150440;27;20035;-77
2023/05/31 04:15:36;;;;;;;12.00;3.95;;;;;;;15.77;40.95;99510.19;5149901;27;20058;-77
2023/05/31 04:18:02;;;;;;;5.35;2.95;;;;;;;16.14;40.93;99565.28;5149058;27;20038;-77
2023/05/31 04:20:31;;;;;;;6.78;3.20;;;;;;;16.16;41.35;99573.19;5149868;27;20046;-77
2023/05/31 04:22:58;;;;;;;4.90;3.17;;;;;;;16.15;41.17;99569.66;5148979;27;20334;-77
2023/05/31 04:25:24;;;;;;;5.00;2.78;;;;;;;15.95;41.06;99532.88;5149983;27;20044;-77
2023/05/31 04:27:51;;;;;;;6.25;3.40;;;;;;;16.18;41.17;99566.78;5150288;27;20043;-77
2023/05/31 04:30:18;;;;;;;7.55;2.88;;;;;;;16.21;41.29;99571.03;5149609;27;20102;-77
2023/05/31 04:32:45;;;;;;;8.00;3.25;;;;;;;16.21;41.10;99566.53;5149625;27;20039;-77
2023/05/31 04:35:12;;;;;;;7.45;3.63;;;;;;;16.23;41.21;99569.09;5149873;27;20320;-77
2023/05/31 04:37:40;;;;;;;7.15;3.00;;;;;;;16.20;41.06;99566.66;5148887;27;20060;-77
2023/05/31 04:40:10;;;;;;;6.78;3.08;;;;;;;16.18;41.22;99574.78;5149715;27;20031;-77
2023/05/31 04:42:38;;;;;;;5.63;3.20;;;;;;;15.73;41.37;99490.88;5148412;27;20051;-77
2023/05/31 04:45:07;;;;;;;7.78;4.78;;;;;;;16.27;41.76;99571.44;5149616;27;20099;-77
2023/05/31 04:47:33;;;;;;;13.85;3.42;;;;;;;15.94;41.60;99525.81;5148393;27;20058;-77
2023/05/31 04:50:01;;;;;;;6.03;2.97;;;;;;;16.33;41.82;99576.31;5149473;27;20045;-77
2023/05/31 04:52:30;;;;;;;8.23;3.35;;;;;;;16.35;41.95;99569.03;5149233;27;20082;-77
2023/05/31 04:55:00;;;;;;;6.18;3.60;;;;;;;15.47;42.17;99428.66;5148920;27;20062;-77
2023/05/31 04:57:29;;;;;;;8.10;3.50;;;;;;;16.42;41.65;99585.47;5149376;27;20112;-77
2023/05/31 04:59:56;;;;;;;7.00;3.88;;;;;;;16.45;41.58;99584.38;5149049;27;20210;-77
2023/05/31 05:02:23;;;;;;;4.93;3.53;;;;;;;16.46;41.76;99586.94;5149434;27;20035;-77
2023/05/31 05:04:50;;;;;;;7.40;3.50;;;;;;;16.52;41.75;99590.97;5148915;27;20051;-77
2023/05/31 05:07:17;;;;;;;8.15;4.22;;;;;;;16.42;41.88;99566.75;5149431;27;20045;-77
2023/05/31 05:09:44;;;;;;;6.20;3.45;;;;;;;16.61;41.80;99592.94;5149391;27;20038;-77
2023/05/31 05:12:12;;;;;;;6.85;3.92;;;;;;;16.65;41.71;99587.25;5149177;27;20043;-77
2023/05/31 05:14:39;;;;;;;5.70;3.70;;;;;;;16.71;41.42;99593.97;5148492;27;20038;-77
2023/05/31 05:17:06;;;;;;;8.65;3.97;;;;;;;16.74;41.68;99584.88;5149085;27;20061;-77
2023/05/31 05:19:33;;;;;;;5.65;3.45;;;;;;;16.16;41.18;99493.84;5148433;27;20039;-77
2023/05/31 05:22:00;;;;;;;6.63;3.65;;;;;;;16.78;41.27;99589.88;5147581;27;20080;-77
2023/05/31 05:24:26;;;;;;;6.53;3.83;;;;;;;16.82;41.65;99590.47;5148618;27;20050;-76
2023/05/31 05:26:54;;;;;;;7.65;3.60;;;;;;;16.83;41.56;99603.75;5148684;27;20047;-77
2023/05/31 05:29:22;;;;;;;8.48;3.40;;;;;;;16.86;41.64;99591.94;5148400;27;20035;-77
2023/05/31 05:31:49;;;;;;;7.30;3.30;;;;;;;16.90;41.30;99596.09;5148425;27;20043;-77
2023/05/31 05:34:17;;;;;;;6.30;3.00;;;;;;;16.92;41.40;99597.69;5147497;27;20042;-77
2023/05/31 05:36:44;;;;;;;7.00;4.22;;;;;;;16.96;41.37;99595.63;5147328;27;20066;-76
2023/05/31 05:39:11;;;;;;;8.60;4.00;;;;;;;17.00;41.64;99610.47;5130172;27;20051;-77
2023/05/31 05:41:38;;;;;;;9.00;3.60;;;;;;;16.67;41.47;99553.22;5149094;27;20222;-77
2023/05/31 05:44:05;;;;;;;6.65;4.05;;;;;;;17.06;41.09;99607.31;5147204;27;20114;-77
2023/05/31 05:46:33;;;;;;;7.13;4.10;;;;;;;17.08;41.20;99609.88;5148306;27;20226;-77
2023/05/31 05:49:00;;;;;;;6.85;4.25;;;;;;;17.09;41.07;99615.13;5147926;27;20096;-77
2023/05/31 05:51:27;;;;;;;9.68;4.07;;;;;;;17.11;41.51;99615.84;5147178;27;20039;-77
2023/05/31 05:53:54;;;;;;;10.30;4.13;;;;;;;17.13;41.21;99619.25;5147541;27;20043;-77
2023/05/31 05:56:22;;;;;;;6.55;3.38;;;;;;;17.16;41.42;99627.06;5148162;27;20059;-77
2023/05/31 05:58:50;;;;;;;7.78;3.70;;;;;;;17.20;41.78;99627.66;5147499;27;20061;-77
2023/05/31 06:01:18;;;;;;;6.40;3.67;;;;;;;17.22;41.48;99628.44;5147901;27;20035;-77
2023/05/31 06:03:48;;;;;;;10.25;4.32;;;;;;;17.24;41.41;99630.03;5147859;27;20038;-77
2023/05/31 06:06:14;;;;;;;9.73;3.80;;;;;;;17.28;41.39;99623.44;5147686;27;20034;-77
2023/05/31 06:08:41;;;;;;;8.32;3.50;;;;;;;17.31;40.93;99623.22;5147689;27;20091;-77
2023/05/31 06:11:08;;;;;;;9.43;3.80;;;;;;;17.35;40.89;99622.97;5146704;27;20047;-77
2023/05/31 06:13:35;;;;;;;7.47;3.42;;;;;;;17.40;40.92;99628.81;5147626;27;20233;-77
2023/05/31 06:16:04;;;;;;;7.80;3.72;;;;;;;17.42;40.85;99634.91;5147389;27;20047;-77
2023/05/31 06:18:31;;;;;;;5.72;3.50;;;;;;;17.44;40.92;99636.47;5147512;27;20043;-77
2023/05/31 06:20:59;;;;;;;8.60;3.70;;;;;;;17.40;40.95;99623.44;5147753;27;20289;-77
2023/05/31 06:23:26;;;;;;;9.05;4.10;;;;;;;17.54;41.13;99639.28;5147916;27;20042;-77
2023/05/31 06:25:52;;;;;;;6.63;3.40;;;;;;;17.58;40.79;99635.38;5147696;27;20047;-77
2023/05/31 06:28:19;;;;;;;5.38;3.70;;;;;;;17.24;41.16;99571.09;5147545;27;20245;-77
2023/05/31 06:30:46;;;;;;;9.15;4.40;;;;;;;15.56;41.28;99280.19;5146329;27;20038;-76
2023/05/31 06:33:13;;;;;;;9.50;3.67;;;;;;;17.50;41.14;99589.59;5146356;27;20451;-77
2023/05/31 06:35:42;;;;;;;7.47;4.45;;;;;;;17.51;40.68;99593.97;5147229;27;20035;-77
2023/05/31 06:38:14;;;;;;;8.57;4.03;;;;;;;17.69;40.65;99640.78;5147635;27;20350;-77
2023/05/31 06:40:42;;;;;;;4.47;3.03;;;;;;;17.73;40.79;99633.34;5147575;27;20042;-76
2023/05/31 06:43:11;;;;;;;5.38;3.22;;;;;;;17.79;40.96;99628.34;5146883;27;20334;-77
2023/05/31 06:45:41;;;;;;;9.80;3.60;;;;;;;17.86;40.52;99626.88;5146201;27;20039;-76
2023/05/31 06:48:08;;;;;;;4.07;3.10;;;;;;;17.62;40.56;99576.09;5146835;27;20042;-77
2023/05/31 06:50:34;;;;;;;8.88;3.95;;;;;;;17.99;40.40;99621.38;5146694;27;20034;-77
2023/05/31 06:53:02;;;;;;;7.80;3.72;;;;;;;18.04;40.32;99627.19;5147145;27;20049;-77
2023/05/31 06:55:30;;;;;;;8.25;4.45;;;;;;;18.13;41.15;99622.91;5146177;27;20047;-77
2023/05/31 06:57:58;;;;;;;12.15;4.72;;;;;;;18.23;41.33;99616.66;5147336;27;20053;-77
2023/05/31 07:00:25;;;;;;;7.85;3.65;;;;;;;18.34;40.89;99607.72;5147022;27;20225;-77
2023/05/31 07:02:52;;;;;;;11.57;3.55;;;;;;;18.41;40.32;99613.44;5147237;27;20245;-77
2023/05/31 07:05:19;;;;;;;8.38;4.28;;;;;;;18.50;40.13;99613.53;5146738;27;20046;-77
2023/05/31 07:07:47;;;;;;;7.18;4.53;;;;;;;18.62;40.38;99608.13;5146078;27;20042;-77
2023/05/31 07:10:14;;;;;;;8.43;4.22;;;;;;;18.73;40.36;99605.38;5147063;27;20054;-77
2023/05/31 07:12:44;;;;;;;6.82;3.95;;;;;;;18.80;40.57;99609.25;5146818;27;20287;-77
2023/05/31 07:15:11;;;;;;;10.30;4.45;;;;;;;18.52;39.92;99557.06;5146426;28;20287;-77
2023/05/31 07:17:38;;;;;;;10.50;4.28;;;;;;;18.09;40.32;99488.22;5145344;28;20043;-77
2023/05/31 07:20:07;;;;;;;9.52;3.78;;;;;;;18.95;39.94;99609.78;5146538;27;20050;-77
2023/05/31 07:22:34;;;;;;;8.70;4.80;;;;;;;19.00;40.37;99607.53;5146890;27;20229;-76
2023/05/31 07:25:03;;;;;;;6.47;4.28;;;;;;;19.06;40.40;99604.34;5145639;28;20203;-76
2023/05/31 07:27:30;;;;;;;8.23;4.05;;;;;;;19.09;39.98;99604.91;5146995;28;20046;-77
2023/05/31 07:29:58;;;;;;;6.65;3.58;;;;;;;19.18;40.30;99609.50;5146362;28;20084;-76
2023/05/31 07:32:25;;;;;;;6.60;3.88;;;;;;;19.25;40.38;99612.50;5145565;28;20039;-77
2023/05/31 07:34:51;;;;;;;6.68;4.50;;;;;;;19.01;40.24;99555.53;5146337;28;20053;-77
2023/05/31 07:37:18;;;;;;;9.45;4.93;;;;;;;19.44;40.09;99615.31;5149516;27;20037;-77
2023/05/31 07:39:45;;;;;;;5.40;3.70;;;;;;;19.52;39.91;99614.66;5150573;27;20228;-76
2023/05/31 07:42:13;;;;;;;9.38;3.40;;;;;;;19.56;39.75;99610.69;5150287;27;20038;-77
2023/05/31 07:44:40;;;;;;;7.82;3.85;;;;;;;19.66;39.60;99610.72;5150871;27;20035;-76
2023/05/31 07:47:09;;;;;;;5.20;3.00;;;;;;;19.71;39.64;99611.19;5150558;27;20043;-77
2023/05/31 07:49:36;;;;;;;7.97;3.85;;;;;;;19.41;39.54;99545.72;5150718;27;20246;-76
2023/05/31 07:52:04;;;;;;;6.57;4.07;;;;;;;17.09;39.35;99157.22;5149476;27;20031;-77
2023/05/31 07:54:31;;;;;;;8.45;4.10;;;;;;;19.74;39.45;99532.91;5150452;27;20106;-76
2023/05/31 07:56:58;;;;;;;9.05;3.83;;;;;;;20.30;38.81;99578.94;5150392;27;20047;-76
2023/05/31 07:59:25;;;;;;;7.25;3.67;;;;;;;20.65;38.37;99585.59;5149348;27;20039;-77
2023/05/31 08:01:53;;;;;;;7.82;3.53;;;;;;;20.82;38.06;99585.69;5149302;27;20043;-77
2023/05/31 08:04:22;;;;;;;5.65;3.50;;;;;;;21.04;37.76;99581.88;5150179;27;20042;-77
2023/05/31 08:06:49;;;;;;;8.65;3.35;;;;;;;21.23;37.47;99580.97;5150553;27;20035;-77
2023/05/31 08:09:17;;;;;;;9.15;4.50;;;;;;;21.39;37.35;99574.94;5150500;27;20047;-77
2023/05/31 08:11:44;;;;;;;8.30;4.63;;;;;;;21.64;37.11;99579.66;5150195;27;20202;-77
2023/05/31 08:14:10;;;;;;;8.40;4.55;;;;;;;21.85;36.73;99578.56;5149896;27;20042;-77
2023/05/31 08:16:39;;;;;;;6.50;3.88;;;;;;;21.99;36.39;99578.06;5150053;27;20096;-77
2023/05/31 08:19:06;;;;;;;6.60;3.53;;;;;;;21.89;36.51;99537.66;5148619;27;20122;-77
2023/05/31 08:21:36;;;;;;;5.50;3.72;;;;;;;22.20;36.30;99570.53;5150294;27;20225;-77
2023/05/31 08:24:03;;;;;;;11.00;3.88;;;;;;;22.18;36.05;99531.19;5150251;27;20047;-77
2023/05/31 08:26:30;;;;;;;7.97;3.80;;;;;;;22.50;35.97;99569.31;5150186;27;20059;-76
2023/05/31 08:28:56;;;;;;;7.47;4.00;;;;;;;22.68;35.79;99569.34;5150052;27;20039;-77
2023/05/31 08:31:23;;;;;;;10.10;3.92;;;;;;;22.82;35.95;99568.75;5148588;27;20035;-77
2023/05/31 08:33:55;;;;;;;11.02;4.30;;;;;;;22.99;35.90;99556.22;5148673;27;20311;-77
2023/05/31 08:36:22;;;;;;;7.30;4.35;;;;;;;22.92;35.57;99523.56;5149499;27;20046;-77
2023/05/31 08:38:51;;;;;;;7.85;3.85;;;;;;;23.19;35.47;99557.69;5149349;27;20080;-77
2023/05/31 08:41:19;;;;;;;8.88;4.30;;;;;;;23.37;35.31;99563.06;5149586;27;20299;-77
2023/05/31 08:43:47;;;;;;;6.10;3.67;;;;;;;23.34;35.06;99531.78;5130963;27;20051;-77
2023/05/31 08:46:17;;;;;;;4.78;3.17;;;;;;;23.66;34.76;99559.97;5149104;27;20062;-77
2023/05/31 08:48:50;;;;;;;6.78;4.00;;;;;;;23.75;34.66;99567.09;5148207;27;20042;-77
2023/05/31 08:51:18;;;;;;;8.40;3.70;;;;;;;23.91;34.78;99563.59;5149384;27;20111;-77
2023/05/31 08:53:47;;;;;;;5.72;3.85;;;;;;;24.09;34.56;99560.81;5149399;27;20045;-77
2023/05/31 08:56:16;;;;;;;5.18;3.30;;;;;;;24.12;34.03;99565.91;5131104;27;20038;-77
2023/05/31 08:58:43;;;;;;;8.20;3.97;;;;;;;23.83;34.35;99514.88;5148185;27;20202;-77
2023/05/31 09:01:12;;;;;;;8.20;3.65;;;;;;;24.24;34.04;99562.69;5148297;27;20038;-76
2023/05/31 09:03:39;;;;;;;5.65;3.88;;;;;;;24.10;33.86;99524.59;5149360;27;20282;-77
2023/05/31 09:06:06;;;;;;;7.63;4.13;;;;;;;24.43;33.97;99569.66;5149038;27;20064;-77
2023/05/31 09:08:33;;;;;;;9.18;4.75;;;;;;;23.94;33.65;99463.97;5149159;27;20084;-76
2023/05/31 09:11:01;;;;;;;8.65;3.80;;;;;;;24.60;33.68;99568.66;5148837;27;20177;-77
2023/05/31 09:13:29;;;;;;;9.80;3.90;;;;;;;24.37;33.43;99512.59;5149193;27;20043;-77
2023/05/31 09:15:58;;;;;;;12.93;4.75;;;;;;;24.48;33.54;99525.81;5149227;27;20186;-77
2023/05/31 09:18:29;;;;;;;7.50;3.88;;;;;;;24.75;33.58;99555.31;5147599;27;20050;-76
2023/05/31 09:20:58;;;;;;;9.80;4.20;;;;;;;24.81;33.42;99551.06;5148077;27;20039;-77
2023/05/31 09:23:25;;;;;;;9.10;5.38;;;;;;;24.88;33.33;99555.63;5147692;27;20035;-77
2023/05/31 09:25:53;;;;;;;8.80;5.22;;;;;;;24.83;33.19;99519.22;5148500;27;20043;-77
2023/05/31 09:28:22;;;;;;;13.63;5.55;;;;;;;24.96;33.12;99514.94;5148505;27;20050;-77
2023/05/31 09:31:04;;;;;;;7.03;4.68;;;;;;;25.18;31.93;99547.81;5148095;27;20050;-77
2023/05/31 09:33:40;;;;;;;11.05;5.55;;;;;;;25.25;32.50;99544.22;5147921;27;20042;-77
2023/05/31 09:36:07;;;;;;;11.75;4.68;;;;;;;25.34;32.94;99538.81;5147587;27;20047;-77
2023/05/31 09:38:35;;;;;;;9.18;4.78;;;;;;;24.86;33.04;99445.69;5147658;27;20169;-77
2023/05/31 09:41:15;;;;;;;6.60;4.00;;;;;;;25.39;31.72;99537.25;5147469;27;20209;-77
2023/05/31 09:43:43;;;;;;;6.45;4.32;;;;;;;25.07;32.77;99480.38;5146634;27;20126;-77
2023/05/31 09:46:23;;;;;;;10.13;4.75;;;;;;;25.37;31.59;99530.31;5147565;27;20092;-77
2023/05/31 09:48:59;;;;;;;10.32;5.85;;;;;;;25.22;32.41;99498.47;5147336;27;20059;-77
2023/05/31 09:51:26;;;;;;;8.18;4.97;;;;;;;24.50;32.75;99358.53;5147233;27;20035;-77
2023/05/31 09:53:55;;;;;;;7.13;4.50;;;;;;;25.34;33.08;99487.25;5146776;27;20051;-77
2023/05/31 09:56:23;;;;;;;9.48;4.55;;;;;;;25.66;32.36;99535.97;5147789;27;20031;-77
2023/05/31 09:58:50;;;;;;;9.88;5.53;;;;;;;25.66;32.63;99533.25;5146720;27;20043;-76
2023/05/31 10:01:19;;;;;;;6.10;4.22;;;;;;;25.66;32.38;99533.25;5146664;27;20041;-77
2023/05/31 10:03:47;;;;;;;6.90;4.38;;;;;;;25.66;32.61;99518.84;5147246;27;20039;-77
2023/05/31 10:06:17;;;;;;;8.10;4.75;;;;;;;25.73;32.26;99526.09;5146753;27;20043;-76
2023/05/31 10:08:45;;;;;;;7.82;5.03;;;;;;;25.71;32.34;99516.44;5146197;27;20122;-77
2023/05/31 10:11:15;;;;;;;10.13;5.90;;;;;;;25.76;32.41;99523.00;5147087;27;20039;-77
2023/05/31 10:13:44;;;;;;;10.90;6.78;;;;;;;25.87;32.50;99509.03;5146872;27;20043;-76
2023/05/31 10:16:15;;;;;;;9.68;5.45;;;;;;;25.94;31.86;99520.03;5146639;27;20055;-77
2023/05/31 10:18:46;;;;;;;7.47;5.07;;;;;;;25.98;31.73;99515.13;5146589;27;20043;-77
2023/05/31 10:21:22;;;;;;;8.15;6.03;;;;;;;26.00;31.84;99519.34;5145433;27;20126;-77
2023/05/31 10:23:57;;;;;;;8.93;7.00;;;;;;;26.08;31.31;99511.16;5146661;27;20096;-77
2023/05/31 10:26:32;;;;;;;10.93;6.28;;;;;;;24.34;32.03;99221.28;5146502;27;20050;-76
2023/05/31 10:29:06;;;;;;;9.68;6.80;;;;;;;24.59;31.91;99247.25;5145669;27;20043;-76
2023/05/31 10:31:38;;;;;;;;;;;;;;;26.08;31.11;99505.72;5147156;27;20043;-76
2023/05/31 10:34:15;;;;;;;6.93;4.38;;;;;;;25.96;31.89;99490.81;5145282;27;20145;-76
2023/05/31 10:36:45;;;;;;;7.05;5.15;;;;;;;26.15;32.15;99503.97;5145999;27;20160;-77
2023/05/31 10:39:20;;;;;;;11.07;6.53;;;;;;;25.77;31.61;99442.44;5145551;27;20050;-77
2023/05/31 10:41:55;;;;;;;9.15;4.85;;;;;;;25.91;31.59;99475.06;5145446;27;20046;-77
2023/05/31 10:44:43;;;;;;;9.93;5.15;;;;;;;26.18;30.96;99503.59;5145047;27;20043;-76
2023/05/31 10:47:12;;;;;;;8.43;4.35;;;;;;;26.21;31.71;99499.69;5146545;27;20193;-76
2023/05/31 10:49:44;;;;;;;17.20;5.03;;;;;;;26.04;31.36;99466.38;5146335;27;20039;-76
2023/05/31 10:52:14;;;;;;;9.27;4.45;;;;;;;26.27;31.59;99498.09;5145976;27;20039;-76
2023/05/31 10:54:41;;;;;;;7.53;4.15;;;;;;;26.29;31.51;99490.63;5146251;27;20066;-76
2023/05/31 10:57:10;;;;;;;7.70;5.25;;;;;;;26.29;31.45;99487.91;5146006;27;20049;-76
2023/05/31 10:59:46;;;;;;;9.63;4.13;;;;;;;26.23;30.91;99486.75;5146224;27;20230;-77
2023/05/31 11:02:13;;;;;;;7.22;3.63;;;;;;;26.26;31.17;99485.53;5146429;27;20039;-77
2023/05/31 11:04:42;;;;;;;6.63;4.10;;;;;;;26.10;30.99;99453.94;5146408;27;20039;-76
2023/05/31 11:07:17;;;;;;;10.20;4.50;;;;;;;26.15;30.93;99487.66;5144967;27;20039;-76
2023/05/31 11:09:58;;;;;;;6.00;3.47;;;;;;;26.10;30.83;99481.09;5145793;27;20104;-77
2023/05/31 11:12:35;;;;;;;7.70;3.78;;;;;;;26.09;31.50;99474.81;5144032;27;20038;-76
2023/05/31 11:15:03;;;;;;;6.32;4.88;;;;;;;25.87;32.02;99454.75;5145061;27;20039;-76
2023/05/31 11:17:30;;;;;;;8.65;5.32;;;;;;;26.09;31.81;99468.53;5128283;28;20164;-76
2023/05/31 11:19:59;;;;;;;9.25;5.15;;;;;;;25.81;31.71;99438.31;5146261;28;20035;-76
2023/05/31 11:22:29;;;;;;;9.35;4.70;;;;;;;25.92;31.64;99470.50;5146678;28;20276;-76
2023/05/31 11:24:57;;;;;;;7.55;4.35;;;;;;;25.87;31.68;99473.75;5146813;28;20110;-74
2023/05/31 11:27:35;;;;;;;8.15;4.18;;;;;;;24.95;31.36;99328.06;5146489;28;20295;-75
2023/05/31 11:30:03;;;;;;;12.82;4.07;;;;;;;25.90;31.69;99465.25;5146658;28;20283;-74
2023/05/31 11:33:07;;;;;;;9.50;4.70;;;;;;;26.00;30.34;99467.75;5146901;28;20035;-75
2023/05/31 11:35:35;;;;;;;4.80;3.55;;;;;;;25.96;31.41;99457.41;5145343;28;20043;-75
2023/05/31 11:38:05;;;;;;;5.32;3.75;;;;;;;25.95;31.46;99464.69;5146439;27;20100;-75
2023/05/31 11:40:32;;;;;;;11.38;4.43;;;;;;;25.94;31.70;99463.00;5146592;27;20035;-75